GMT,Max TemperatureF,Mean TemperatureF,Min TemperatureF,Max Dew PointF,MeanDew PointF,Min DewpointF,Max Humidity, Mean Humidity, Min Humidity, Max Sea Level PressureIn, Mean Sea Level PressureIn, Min Sea Level PressureIn, Max VisibilityMiles, Mean VisibilityMiles, Min VisibilityMiles, Max Wind SpeedMPH, Mean Wind SpeedMPH, Max Gust SpeedMPH,PrecipitationIn, CloudCover, Events, WindDirDegrees
2013-1-1,47,44,41,43,40,39,93,84,76,30.21,29.94,29.68,12,7,1,17,13,29,0.03,2,Rain,302
2013-1-2,51,46,42,50,48,41,100,97,92,30.48,30.33,30.21,11,4,0,17,11,26,0.01,7,Fog-Rain,279
2013-1-3,51,50,50,50,49,47,100,96,85,30.70,30.60,30.48,9,4,0,12,9,21,0.00,8,Fog,259
2013-1-4,52,50,49,50,49,46,100,93,87,30.69,30.65,30.60,11,6,2,13,9,,0.00,8,Rain,218
2013-1-5,52,51,50,51,50,48,100,94,88,30.59,30.56,30.51,11,5,1,12,10,,0.00,7,,215
2013-1-6,50,49,48,50,49,48,100,97,90,30.53,30.42,30.33,9,3,0,14,9,25,0.04,7,Rain,200
2013-1-7,51,50,50,50,48,47,100,92,86,30.33,30.25,30.21,12,7,4,16,11,24,0.00,6,,210
2013-1-8,51,50,48,52,50,48,100,97,92,30.23,30.20,30.18,12,3,0,16,12,29,0.04,8,Rain,223
2013-1-9,48,45,42,48,45,41,100,97,93,30.21,30.12,30.04,12,4,0,14,10,,0.01,5,Fog-Rain,59
2013-1-10,50,44,37,48,43,36,100,91,80,30.14,30.03,29.95,13,6,1,21,8,33,0.12,4,Fog-Rain,278
2013-1-11,51,46,42,48,45,41,100,91,78,30.14,29.98,29.68,12,6,2,17,9,33,0.16,5,Fog-Rain,222
2013-1-12,46,44,42,45,43,42,100,95,90,29.86,29.60,29.50,14,6,2,22,11,37,0.16,5,Rain,195
2013-1-13,42,38,35,43,37,34,100,90,75,30.21,30.10,29.86,7,5,3,18,11,30,0.12,7,Rain,55
2013-1-14,47,44,41,43,41,37,100,89,75,30.12,29.97,29.86,12,6,1,21,11,38,0.16,6,Rain,330
2013-1-15,45,42,39,39,38,37,93,85,73,29.96,29.87,29.68,12,7,6,18,12,34,0.04,5,Rain,349
2013-1-16,44,42,39,41,38,34,93,84,66,29.97,29.79,29.62,12,7,4,20,14,31,0.00,7,Rain,122
2013-1-17,46,44,41,43,41,36,100,89,76,29.99,29.85,29.59,12,6,2,32,14,47,0.31,7,Rain,171
2013-1-18,47,42,37,46,42,36,100,96,92,29.56,29.35,29.27,9,4,0,32,18,47,0.28,7,Fog-Rain,94
2013-1-19,40,36,32,41,35,30,100,91,81,29.50,29.38,29.24,9,5,2,18,13,,0.00,6,Fog,65
2013-1-20,34,31,28,32,29,27,100,88,75,29.49,29.39,29.27,6,6,4,15,11,,0.00,5,Snow,71
2013-1-21,42,36,31,38,33,28,100,92,80,29.42,29.34,29.24,9,4,0,12,8,,0.12,6,Rain-Snow,54
2013-1-22,42,37,32,39,36,32,100,89,79,29.64,29.42,29.30,11,6,3,16,9,23,0.04,6,Rain,50
2013-1-23,41,37,33,37,35,32,100,86,74,29.73,29.66,29.59,12,7,4,14,10,,0.00,6,Rain,53
2013-1-24,43,39,35,37,35,33,93,87,70,30.07,29.96,29.74,9,4,2,18,10,,0.00,6,,86
2013-1-25,50,46,42,50,43,36,100,89,69,29.99,29.73,29.42,12,4,0,34,19,50,0.20,7,Rain,187
2013-1-26,52,47,42,52,45,37,100,87,66,29.92,29.74,29.44,12,6,1,33,22,45,0.01,6,Rain,250
2013-1-27,48,44,41,52,43,38,100,85,75,29.75,29.54,29.33,12,7,1,29,23,48,0.02,4,Rain,262
2013-1-28,51,46,42,51,46,39,100,91,77,29.81,29.71,29.59,12,4,0,43,22,58,0.04,7,Rain,240
2013-1-29,53,52,50,53,52,50,100,97,94,29.68,29.63,29.56,2,1,0,31,24,52,0.02,8,Fog-Rain,229
2013-1-30,51,50,48,48,47,45,100,89,76,30.09,29.90,29.59,7,5,1,26,15,41,0.00,4,Rain,259
2013-1-31,50,48,46,48,46,41,94,86,73,30.05,29.99,29.89,7,6,3,34,21,55,0.02,6,Rain,253